Terminal Aerodrome Forecast
Issued by NWS

Home | Current Version | Previous Version | Text Only | Print | Product List | Glossary On
Versions: 1 2 3 4 5 6 7 8 9 10 11 12 13 14 15 16 17 18 19 20 21
000
FTAK31 PAJN 201100
TAFAYA
TAF
PAYA 201122Z 2012/2112 09007KT P6SM -SHRA VCTS SCT015 BKN040CB
      OVC070
     FM201500 08005KT P6SM -SHRA SCT020 BKN045
     FM202000 12007KT P6SM -SHRA SCT020 OVC030
     FM210200 09005KT P6SM VCSH SCT020 OVC040
     FM211100 VRB03KT 6SM BCFG FEW005 BKN040
      AMD LTD TO CLD VIS AND WIND 2101/2110=

USA.gov is the U.S. government's official web portal to all federal, state and local government web resources and services.